Time;durP1;ratioP1;P1;durP2;ratioP2;P2;SDS_P1;SDS_P2;PMS_P1;PMS_P2;Temp;Humidity;BMP_temperature;BMP_pressure;BME280_temperature;BME280_humidity;BME280_pressure;Samples;Min_cycle;Max_cycle;Signal;HPM_P1;HPM_P2
2022/10/26 00:01:48;;;;;;;7.90;7.13;;;9.90;99.90;;;;;;5248671;28;20237;-49
2022/10/26 00:04:19;;;;;;;8.60;7.70;;;9.90;99.90;;;;;;5259910;28;20543;-46
2022/10/26 00:06:50;;;;;;;9.07;8.10;;;9.80;99.90;;;;;;5258598;28;20189;-47
2022/10/26 00:09:20;;;;;;;12.20;8.37;;;9.80;99.90;;;;;;5267659;28;20228;-46
2022/10/26 00:11:52;;;;;;;13.37;9.10;;;9.80;99.90;;;;;;5256298;28;20221;-47
2022/10/26 00:14:23;;;;;;;10.80;9.50;;;9.80;99.90;;;;;;5256499;28;20194;-46
2022/10/26 00:16:53;;;;;;;13.83;9.50;;;9.80;99.90;;;;;;5257827;28;20436;-46
2022/10/26 00:19:24;;;;;;;22.37;10.30;;;9.80;99.90;;;;;;5256737;28;20239;-47
2022/10/26 00:21:55;;;;;;;11.47;8.80;;;9.80;99.90;;;;;;5249578;28;20847;-47
2022/10/26 00:24:25;;;;;;;11.13;9.30;;;9.80;99.90;;;;;;5248321;28;20186;-46
2022/10/26 00:26:56;;;;;;;15.23;9.40;;;9.80;99.90;;;;;;5263029;28;20225;-46
2022/10/26 00:29:26;;;;;;;11.87;9.30;;;9.80;99.90;;;;;;5249964;28;20563;-46
2022/10/26 00:31:57;;;;;;;13.30;8.93;;;9.70;99.90;;;;;;5257660;28;20205;-46
2022/10/26 00:34:27;;;;;;;8.20;7.40;;;9.70;99.90;;;;;;5261819;28;20190;-46
2022/10/26 00:36:58;;;;;;;10.50;8.00;;;9.60;99.90;;;;;;5259090;28;20650;-47
2022/10/26 00:39:28;;;;;;;9.43;7.03;;;9.70;99.90;;;;;;5248586;28;20735;-49
2022/10/26 00:41:59;;;;;;;8.50;7.57;;;9.60;99.90;;;;;;5261964;28;20198;-46
2022/10/26 00:44:48;;;;;;;7.93;6.77;;;9.70;99.90;;;;;;5257102;28;20181;-47
2022/10/26 00:47:32;;;;;;;16.50;10.50;;;9.60;99.90;;;;;;5253312;28;20197;-46
2022/10/26 00:50:14;;;;;;;16.50;9.83;;;9.60;99.90;;;;;;5255215;28;20462;-47
2022/10/26 00:52:44;;;;;;;14.07;9.07;;;9.60;99.90;;;;;;5269327;28;20447;-47
2022/10/26 00:55:20;;;;;;;12.83;9.73;;;9.60;99.90;;;;;;5260160;28;20440;-47
2022/10/26 00:57:52;;;;;;;12.40;10.10;;;9.70;99.90;;;;;;5263353;28;20660;-48
2022/10/26 01:00:22;;;;;;;15.50;9.97;;;9.70;99.90;;;;;;5249836;28;20998;-45
2022/10/26 01:02:56;;;;;;;16.83;10.20;;;9.70;99.90;;;;;;5255406;28;20469;-45
2022/10/26 01:05:27;;;;;;;17.27;11.53;;;9.60;99.90;;;;;;5251989;28;20170;-47
2022/10/26 01:07:59;;;;;;;19.30;11.60;;;9.60;99.90;;;;;;5253065;28;20435;-46
2022/10/26 01:10:29;;;;;;;19.57;10.53;;;9.60;99.90;;;;;;5257965;28;20489;-47
2022/10/26 01:13:01;;;;;;;14.10;10.40;;;9.60;99.90;;;;;;5247557;28;20520;-47
2022/10/26 01:15:59;;;;;;;26.63;12.47;;;9.60;99.90;;;;;;5254628;28;20202;-46
2022/10/26 01:18:56;;;;;;;16.87;9.87;;;9.70;99.90;;;;;;5254820;28;20434;-46
2022/10/26 01:21:46;;;;;;;22.23;12.03;;;9.60;99.90;;;;;;5249650;28;20460;-45
2022/10/26 01:24:54;;;;;;;16.03;11.30;;;9.60;99.90;;;;;;5255908;28;20425;-46
2022/10/26 01:27:35;;;;;;;17.30;11.40;;;9.60;99.90;;;;;;5254442;28;20431;-47
2022/10/26 01:30:18;;;;;;;22.77;10.63;;;9.60;99.90;;;;;;5259535;28;20449;-46
2022/10/26 01:32:54;;;;;;;17.73;11.37;;;9.50;99.90;;;;;;5247473;28;20438;-45
2022/10/26 01:36:04;;;;;;;19.27;10.73;;;9.50;99.90;;;;;;5259026;28;20431;-47
2022/10/26 01:38:44;;;;;;;18.53;12.30;;;9.50;99.90;;;;;;5238066;28;20923;-46
2022/10/26 01:41:21;;;;;;;29.83;11.63;;;9.50;99.90;;;;;;5256484;28;20620;-46
2022/10/26 01:44:00;;;;;;;24.40;11.03;;;9.50;99.90;;;;;;5257916;28;20833;-46
2022/10/26 01:46:38;;;;;;;17.13;11.33;;;9.50;99.90;;;;;;5260710;28;20424;-47
2022/10/26 01:49:11;;;;;;;12.50;10.53;;;9.40;99.90;;;;;;5253790;28;20439;-46
2022/10/26 01:51:43;;;;;;;10.73;9.63;;;9.40;99.90;;;;;;5264522;28;20526;-46
2022/10/26 01:54:14;;;;;;;23.93;11.57;;;9.40;99.90;;;;;;5262223;28;20467;-46
2022/10/26 01:56:50;;;;;;;13.57;9.67;;;9.40;99.90;;;;;;5257240;28;20462;-45
2022/10/26 01:59:25;;;;;;;12.60;10.20;;;9.40;99.90;;;;;;5262450;28;20183;-46
2022/10/26 02:02:21;;;;;;;17.47;11.60;;;9.40;99.90;;;;;;5263764;28;20550;-46
2022/10/26 02:04:54;;;;;;;12.20;9.33;;;9.40;99.90;;;;;;5266066;28;20433;-48
2022/10/26 02:07:35;;;;;;;13.60;10.73;;;9.30;99.90;;;;;;5259636;28;20437;-47
2022/10/26 02:10:39;;;;;;;11.50;9.17;;;9.30;99.90;;;;;;5256719;28;20907;-46
2022/10/26 02:13:51;;;;;;;13.43;10.60;;;9.30;99.90;;;;;;5219761;28;20436;-47
2022/10/26 02:16:28;;;;;;;14.97;10.40;;;9.20;99.90;;;;;;5241669;28;20428;-45
2022/10/26 02:19:05;;;;;;;14.63;10.40;;;9.20;99.90;;;;;;5265333;28;20439;-45
2022/10/26 02:21:40;;;;;;;12.50;9.90;;;9.20;99.90;;;;;;5252329;28;20448;-47
2022/10/26 02:24:14;;;;;;;21.07;10.50;;;9.20;99.90;;;;;;5258079;28;20528;-45
2022/10/26 02:26:47;;;;;;;19.83;11.20;;;9.20;99.90;;;;;;5259952;28;20784;-45
2022/10/26 02:29:19;;;;;;;21.90;11.33;;;9.20;99.90;;;;;;5254307;28;20501;-47
2022/10/26 02:31:51;;;;;;;28.40;11.93;;;9.10;99.90;;;;;;5252303;28;20812;-47
2022/10/26 02:34:26;;;;;;;16.97;11.87;;;9.20;99.90;;;;;;5251784;28;20435;-46
2022/10/26 02:36:59;;;;;;;22.40;11.83;;;9.20;99.90;;;;;;5253180;28;20395;-48
2022/10/26 02:39:33;;;;;;;16.33;11.80;;;9.20;99.90;;;;;;5268211;28;20803;-46
2022/10/26 02:42:07;;;;;;;19.83;11.20;;;9.20;99.90;;;;;;5251173;28;20454;-46
2022/10/26 02:44:59;;;;;;;21.20;11.77;;;9.20;99.90;;;;;;5259048;28;20442;-46
2022/10/26 02:47:30;;;;;;;20.63;12.33;;;9.20;99.90;;;;;;5255270;28;20427;-45
2022/10/26 02:50:01;;;;;;;11.17;9.83;;;9.20;99.90;;;;;;5261334;28;20439;-46
2022/10/26 02:52:40;;;;;;;14.40;11.23;;;9.20;99.90;;;;;;5265000;28;20824;-46
2022/10/26 02:55:22;;;;;;;23.57;11.80;;;9.20;99.90;;;;;;5257867;28;20456;-46
2022/10/26 02:58:12;;;;;;;16.90;10.77;;;9.20;99.90;;;;;;5255008;28;20928;-45
2022/10/26 03:00:44;;;;;;;13.67;10.47;;;9.10;99.90;;;;;;5260254;28;20499;-46
2022/10/26 03:03:16;;;;;;;15.47;10.30;;;9.10;99.90;;;;;;5264725;28;20423;-46
2022/10/26 03:05:47;;;;;;;17.57;9.60;;;9.10;99.90;;;;;;5250752;28;20432;-46
2022/10/26 03:08:17;;;;;;;19.33;8.90;;;9.10;99.90;;;;;;5266874;28;20472;-46
2022/10/26 03:10:48;;;;;;;10.63;8.53;;;9.10;99.90;;;;;;5268086;28;20266;-46
2022/10/26 03:13:18;;;;;;;16.20;11.30;;;9.00;99.90;;;;;;5255617;28;20209;-46
2022/10/26 03:15:49;;;;;;;16.53;11.00;;;9.00;99.90;;;;;;5249847;28;20178;-46
2022/10/26 03:18:20;;;;;;;17.73;10.63;;;9.00;99.90;;;;;;5261251;28;20561;-47
2022/10/26 03:20:50;;;;;;;12.57;10.10;;;9.00;99.90;;;;;;5254541;28;20209;-47
2022/10/26 03:23:21;;;;;;;19.07;11.97;;;9.00;99.90;;;;;;5262360;28;20182;-46
2022/10/26 03:25:58;;;;;;;24.23;11.37;;;9.00;99.90;;;;;;5262196;28;20220;-46
2022/10/26 03:28:29;;;;;;;22.33;11.40;;;9.00;99.90;;;;;;5260598;28;20178;-45
2022/10/26 03:30:59;;;;;;;17.73;10.77;;;9.00;99.90;;;;;;5249050;28;20794;-46
2022/10/26 03:33:30;;;;;;;15.23;11.50;;;9.00;99.90;;;;;;5259080;28;20291;-45
2022/10/26 03:36:00;;;;;;;16.20;11.47;;;9.00;99.90;;;;;;5255111;28;20186;-45
2022/10/26 03:38:31;;;;;;;15.20;11.33;;;9.00;99.90;;;;;;5262757;28;20189;-46
2022/10/26 03:41:01;;;;;;;18.53;10.93;;;9.00;99.90;;;;;;5257698;28;20577;-45
2022/10/26 03:43:32;;;;;;;23.07;11.87;;;9.00;99.90;;;;;;5263062;28;20181;-46
2022/10/26 03:46:03;;;;;;;18.40;11.50;;;8.90;99.90;;;;;;5251864;28;20186;-46
2022/10/26 03:48:33;;;;;;;19.53;11.73;;;8.90;99.90;;;;;;5254138;28;20194;-46
2022/10/26 03:51:04;;;;;;;19.30;10.67;;;8.90;99.90;;;;;;5242010;28;20262;-45
2022/10/26 03:53:34;;;;;;;19.37;11.47;;;8.90;99.90;;;;;;5267842;28;20271;-45
2022/10/26 03:56:05;;;;;;;17.97;10.60;;;8.90;99.90;;;;;;5264546;28;20189;-46
2022/10/26 03:58:36;;;;;;;20.87;11.97;;;8.90;99.90;;;;;;5256414;28;20194;-46
2022/10/26 04:01:06;;;;;;;21.80;11.03;;;8.90;99.90;;;;;;5248635;28;20696;-52
2022/10/26 04:03:37;;;;;;;18.50;11.53;;;8.90;99.90;;;;;;5252988;28;20968;-51
2022/10/26 04:06:07;;;;;;;20.43;11.10;;;8.90;99.90;;;;;;5245911;28;20224;-51
2022/10/26 04:08:38;;;;;;;17.50;11.60;;;8.90;99.90;;;;;;5260945;28;20295;-50
2022/10/26 04:11:09;;;;;;;15.53;10.37;;;8.90;99.90;;;;;;5254386;28;20221;-52
2022/10/26 04:13:39;;;;;;;17.63;10.90;;;8.90;99.90;;;;;;5251756;28;20622;-52
2022/10/26 04:16:10;;;;;;;18.83;11.07;;;8.80;99.90;;;;;;5260796;28;20193;-49
2022/10/26 04:18:40;;;;;;;23.53;11.77;;;8.80;99.90;;;;;;5247070;28;20189;-51
2022/10/26 04:21:11;;;;;;;20.80;11.00;;;8.80;99.90;;;;;;5256940;28;20297;-51
2022/10/26 04:23:41;;;;;;;31.70;11.40;;;8.80;99.90;;;;;;5263225;28;20216;-50
2022/10/26 04:26:12;;;;;;;28.80;11.27;;;8.80;99.90;;;;;;5242012;28;20174;-50
2022/10/26 04:28:42;;;;;;;14.17;9.63;;;8.80;99.90;;;;;;5263158;28;20182;-50
2022/10/26 04:31:13;;;;;;;18.80;10.70;;;8.80;99.90;;;;;;5249422;28;20600;-51
2022/10/26 04:33:44;;;;;;;14.53;10.77;;;8.80;99.90;;;;;;5262034;28;20645;-51
2022/10/26 04:36:14;;;;;;;18.30;11.60;;;8.80;99.90;;;;;;5250559;28;20197;-52
2022/10/26 04:38:47;;;;;;;17.50;11.47;;;8.80;99.90;;;;;;5257428;28;20182;-51
2022/10/26 04:41:18;;;;;;;18.60;11.27;;;8.70;99.90;;;;;;5267251;28;20213;-50
2022/10/26 04:43:48;;;;;;;15.80;10.43;;;8.80;99.90;;;;;;5262976;28;20433;-52
2022/10/26 04:46:19;;;;;;;16.77;11.27;;;8.80;99.90;;;;;;5258725;28;20212;-51
2022/10/26 04:48:49;;;;;;;19.67;11.60;;;8.80;99.90;;;;;;5255540;28;20201;-51
2022/10/26 04:51:20;;;;;;;20.73;11.50;;;8.80;99.90;;;;;;5254346;28;20665;-51
2022/10/26 04:53:53;;;;;;;21.37;12.70;;;8.80;99.90;;;;;;5254999;28;20672;-51
2022/10/26 04:56:23;;;;;;;20.20;11.50;;;8.90;99.90;;;;;;5256615;28;20218;-52
2022/10/26 04:58:54;;;;;;;15.73;10.70;;;8.80;99.90;;;;;;5249841;28;20459;-50
2022/10/26 05:01:25;;;;;;;21.00;12.77;;;8.80;99.90;;;;;;5247270;28;20260;-49
2022/10/26 05:03:55;;;;;;;26.47;12.43;;;8.70;99.90;;;;;;5258538;28;20181;-52
2022/10/26 05:06:26;;;;;;;19.17;12.00;;;8.80;99.90;;;;;;5254399;28;20231;-50
2022/10/26 05:08:57;;;;;;;23.20;12.20;;;8.80;99.90;;;;;;5257145;28;20234;-51
2022/10/26 05:11:27;;;;;;;13.27;10.73;;;8.70;99.90;;;;;;5262191;28;20570;-51
2022/10/26 05:13:58;;;;;;;13.90;11.13;;;8.70;99.90;;;;;;5261350;28;20189;-49
2022/10/26 05:16:28;;;;;;;16.50;11.83;;;8.70;99.90;;;;;;5254745;28;20268;-55
2022/10/26 05:18:59;;;;;;;15.50;12.07;;;8.70;99.90;;;;;;5266544;28;20634;-51
2022/10/26 05:21:30;;;;;;;27.83;13.60;;;8.70;99.90;;;;;;5260610;28;20213;-51
2022/10/26 05:24:00;;;;;;;14.57;11.90;;;8.70;99.90;;;;;;5267989;28;20181;-51
2022/10/26 05:26:31;;;;;;;21.33;12.30;;;8.70;99.90;;;;;;5259438;28;20425;-52
2022/10/26 05:29:02;;;;;;;20.00;12.27;;;8.70;99.90;;;;;;5263136;28;20261;-52
2022/10/26 05:31:32;;;;;;;21.50;12.57;;;8.70;99.90;;;;;;5255261;28;20237;-50
2022/10/26 05:34:03;;;;;;;17.93;11.93;;;8.70;99.90;;;;;;5269518;28;20656;-51
2022/10/26 05:36:33;;;;;;;19.27;12.00;;;8.60;99.90;;;;;;5265889;28;20634;-52
2022/10/26 05:39:04;;;;;;;15.97;11.33;;;8.60;99.90;;;;;;5267484;28;20185;-50
2022/10/26 05:41:34;;;;;;;26.20;13.23;;;8.70;99.90;;;;;;5262453;28;20217;-48
2022/10/26 05:44:05;;;;;;;26.43;12.83;;;8.70;99.90;;;;;;5269425;28;20190;-51
2022/10/26 05:46:35;;;;;;;17.90;12.67;;;8.70;99.90;;;;;;5259258;28;20189;-51
2022/10/26 05:49:06;;;;;;;15.03;12.17;;;8.70;99.90;;;;;;5262950;28;20185;-51
2022/10/26 05:51:38;;;;;;;21.60;13.03;;;8.70;99.90;;;;;;5259962;28;20213;-52
2022/10/26 05:54:09;;;;;;;17.70;11.80;;;8.60;99.90;;;;;;5267851;28;20718;-52
2022/10/26 05:56:40;;;;;;;16.07;11.20;;;8.60;99.90;;;;;;5268271;28;20440;-50
2022/10/26 05:59:13;;;;;;;27.27;13.67;;;8.70;99.90;;;;;;5266112;28;20174;-52
2022/10/26 06:02:06;;;;;;;19.07;12.70;;;8.60;99.90;;;;;;5262851;28;20464;-52
2022/10/26 06:04:46;;;;;;;26.27;12.83;;;8.60;99.90;;;;;;5264748;28;20431;-51
2022/10/26 06:07:21;;;;;;;19.83;12.77;;;8.60;99.90;;;;;;5268385;28;21031;-52
2022/10/26 06:09:52;;;;;;;16.70;10.93;;;8.60;99.90;;;;;;5262404;28;20439;-51
2022/10/26 06:12:25;;;;;;;17.80;12.80;;;8.60;99.90;;;;;;5261714;28;20462;-48
2022/10/26 06:14:56;;;;;;;23.30;12.90;;;8.70;99.90;;;;;;5268436;28;20216;-51
2022/10/26 06:18:03;;;;;;;19.63;13.00;;;8.70;99.90;;;;;;5269050;28;20950;-51
2022/10/26 06:21:14;;;;;;;24.40;14.10;;;8.70;99.90;;;;;;5226160;28;20981;-52
2022/10/26 06:24:03;;;;;;;20.17;14.40;;;8.70;99.90;;;;;;5259799;28;20434;-50
2022/10/26 06:26:44;;;;;;;20.07;14.77;;;8.70;99.90;;;;;;5259205;28;20815;-52
2022/10/26 06:29:36;;;;;;;25.00;16.27;;;8.80;99.90;;;;;;5257851;28;20824;-51
2022/10/26 06:32:08;;;;;;;26.23;14.70;;;9.40;99.90;;;;;;5258914;28;20987;-52
2022/10/26 06:34:46;;;;;;;21.33;11.40;;;10.40;99.90;;;;;;5265196;28;20787;-49
2022/10/26 06:37:17;;;;;;;16.77;9.93;;;11.00;99.90;;;;;;5256529;28;20436;-51
2022/10/26 06:39:49;;;;;;;12.40;8.23;;;11.40;99.90;;;;;;5262542;28;21048;-52
2022/10/26 06:42:19;;;;;;;11.97;6.90;;;11.80;99.90;;;;;;5259971;28;20439;-51
2022/10/26 06:44:50;;;;;;;11.83;6.77;;;12.30;99.90;;;;;;5259453;28;20447;-52
2022/10/26 06:47:32;;;;;;;8.33;6.20;;;12.60;99.90;;;;;;5263399;28;20326;-52
2022/10/26 06:50:44;;;;;;;8.10;6.77;;;12.70;99.90;;;;;;5263969;28;20573;-47
2022/10/26 06:53:41;;;;;;;9.00;6.70;;;12.50;99.90;;;;;;5250282;28;20498;-56
2022/10/26 06:56:12;;;;;;;10.23;7.03;;;12.20;99.90;;;;;;5261630;28;20439;-51
2022/10/26 06:58:44;;;;;;;19.57;6.90;;;12.50;99.90;;;;;;5258906;28;20427;-49
2022/10/26 07:01:15;;;;;;;22.30;7.37;;;13.10;99.90;;;;;;5264243;28;20481;-51
2022/10/26 07:03:46;;;;;;;12.73;5.87;;;14.20;99.90;;;;;;5260594;28;20505;-51
2022/10/26 07:06:16;;;;;;;6.10;5.50;;;15.60;99.90;;;;;;5252820;28;20432;-46
2022/10/26 07:08:47;;;;;;;6.23;5.13;;;16.70;99.90;;;;;;5259973;28;20245;-48
2022/10/26 07:11:17;;;;;;;7.70;6.07;;;16.70;99.90;;;;;;5263587;28;20761;-46
2022/10/26 07:13:49;;;;;;;15.10;6.40;;;15.60;99.90;;;;;;5262265;28;20203;-49
2022/10/26 07:16:22;;;;;;;9.83;6.30;;;14.40;99.90;;;;;;5258024;28;20221;-46
2022/10/26 07:18:52;;;;;;;10.07;6.97;;;13.30;99.90;;;;;;5261579;28;20471;-46
2022/10/26 07:21:23;;;;;;;8.83;6.93;;;12.40;99.90;;;;;;5258156;28;20510;-46
2022/10/26 07:23:55;;;;;;;11.10;7.93;;;11.70;99.90;;;;;;5260965;28;20174;-47
2022/10/26 07:26:26;;;;;;;7.23;6.07;;;11.30;99.90;;;;;;5261678;28;20185;-49
2022/10/26 07:28:57;;;;;;;11.57;8.10;;;11.00;99.90;;;;;;5259805;28;20534;-46
2022/10/26 07:31:27;;;;;;;17.03;8.50;;;10.80;99.90;;;;;;5265682;28;20205;-46
2022/10/26 07:33:58;;;;;;;21.23;8.40;;;10.60;99.90;;;;;;5265911;28;20201;-47
2022/10/26 07:36:28;;;;;;;12.93;7.70;;;10.50;99.90;;;;;;5267854;28;20705;-47
2022/10/26 07:38:59;;;;;;;15.83;9.17;;;10.50;99.90;;;;;;5268100;28;20678;-46
2022/10/26 07:41:30;;;;;;;16.93;8.90;;;10.50;99.90;;;;;;5257024;28;20213;-47
2022/10/26 07:44:00;;;;;;;14.73;9.70;;;10.40;99.90;;;;;;5262878;28;20284;-47
2022/10/26 07:46:31;;;;;;;17.20;9.13;;;10.40;99.90;;;;;;5262543;28;20177;-48
2022/10/26 07:49:01;;;;;;;13.60;9.07;;;10.50;99.90;;;;;;5264260;28;20188;-47
2022/10/26 07:51:32;;;;;;;12.90;8.47;;;10.60;99.90;;;;;;5258615;28;20233;-47
2022/10/26 07:54:03;;;;;;;11.87;8.80;;;10.70;99.90;;;;;;5267561;28;20638;-46
2022/10/26 07:56:33;;;;;;;15.50;8.17;;;10.80;99.90;;;;;;5267500;28;20586;-48
2022/10/26 07:59:04;;;;;;;8.47;7.57;;;10.90;99.90;;;;;;5264942;28;20189;-51
2022/10/26 08:01:35;;;;;;;9.83;7.83;;;10.90;99.90;;;;;;5264665;28;20218;-46
2022/10/26 08:04:06;;;;;;;13.63;9.17;;;11.00;99.90;;;;;;5263976;28;20530;-46
2022/10/26 08:06:36;;;;;;;17.83;8.80;;;11.00;99.90;;;;;;5266003;28;20500;-47
2022/10/26 08:09:07;;;;;;;11.13;7.57;;;11.10;99.90;;;;;;5261999;28;20334;-48
2022/10/26 08:11:38;;;;;;;11.83;7.67;;;11.00;99.90;;;;;;5250853;28;20259;-46
2022/10/26 08:14:09;;;;;;;13.57;9.17;;;11.00;99.90;;;;;;5259830;28;20200;-51
2022/10/26 08:16:40;;;;;;;17.50;9.13;;;11.10;99.90;;;;;;5266099;28;20244;-47
2022/10/26 08:19:10;;;;;;;15.23;10.43;;;11.00;99.90;;;;;;5253616;28;20440;-52
2022/10/26 08:21:41;;;;;;;14.17;9.77;;;11.20;99.90;;;;;;5260709;28;20223;-50
2022/10/26 08:24:12;;;;;;;13.17;9.67;;;11.20;99.90;;;;;;5258896;28;20269;-51
2022/10/26 08:26:43;;;;;;;16.03;9.87;;;11.20;99.90;;;;;;5261058;28;20653;-53
2022/10/26 08:29:13;;;;;;;16.27;9.73;;;11.30;99.90;;;;;;5259537;28;20193;-51
2022/10/26 08:31:47;;;;;;;14.20;9.60;;;11.30;99.90;;;;;;5263728;28;20563;-52
2022/10/26 08:34:18;;;;;;;12.67;9.00;;;11.40;99.90;;;;;;5258424;28;20186;-52
2022/10/26 08:36:49;;;;;;;19.20;9.50;;;11.50;99.90;;;;;;5262387;28;20497;-51
2022/10/26 08:39:20;;;;;;;15.27;9.20;;;11.50;99.90;;;;;;5264811;28;20729;-48
2022/10/26 08:42:00;;;;;;;15.37;10.67;;;11.60;99.90;;;;;;5264387;28;20256;-48
2022/10/26 08:44:36;;;;;;;14.37;9.50;;;11.60;99.90;;;;;;5255257;28;20217;-48
2022/10/26 08:47:19;;;;;;;18.30;9.53;;;11.80;99.90;;;;;;5265482;28;20458;-49
2022/10/26 08:50:05;;;;;;;21.97;9.73;;;11.90;99.90;;;;;;5265254;28;20451;-48
2022/10/26 08:52:50;;;;;;;10.40;8.70;;;12.00;99.90;;;;;;5258085;28;20419;-48
2022/10/26 08:55:27;;;;;;;10.50;7.50;;;12.20;99.90;;;;;;5263582;28;20443;-50
2022/10/26 08:58:00;;;;;;;9.10;7.13;;;12.20;99.90;;;;;;5258558;28;20946;-48
2022/10/26 09:00:33;;;;;;;15.60;7.50;;;12.30;99.90;;;;;;5262269;28;20483;-49
2022/10/26 09:03:14;;;;;;;22.57;8.20;;;12.40;99.90;;;;;;5262433;28;20424;-48
2022/10/26 09:06:17;;;;;;;15.00;8.03;;;12.40;99.90;;;;;;5262396;28;20436;-48
2022/10/26 09:08:58;;;;;;;21.53;8.80;;;12.50;99.90;;;;;;5263167;28;20431;-48
2022/10/26 09:12:03;;;;;;;19.33;7.97;;;12.40;99.90;;;;;;5258012;28;20475;-48
2022/10/26 09:15:11;;;;;;;8.30;7.30;;;12.50;99.90;;;;;;5259156;28;20436;-48
2022/10/26 09:17:53;;;;;;;16.17;8.27;;;12.60;99.90;;;;;;5263190;28;20443;-48
2022/10/26 09:20:38;;;;;;;17.03;8.77;;;12.70;99.90;;;;;;5259792;28;20464;-48
2022/10/26 09:23:32;;;;;;;13.83;8.63;;;12.70;99.90;;;;;;5265120;28;20515;-51
2022/10/26 09:26:08;;;;;;;8.73;7.67;;;12.90;99.90;;;;;;5254538;28;20989;-48
2022/10/26 09:28:40;;;;;;;14.63;8.53;;;12.90;99.90;;;;;;5266175;28;20946;-51
2022/10/26 09:31:16;;;;;;;12.43;7.47;;;13.20;99.90;;;;;;5264984;28;20492;-49
2022/10/26 09:33:47;;;;;;;18.17;8.23;;;13.30;99.90;;;;;;5265160;28;20553;-47
2022/10/26 09:36:20;;;;;;;14.83;8.20;;;13.40;99.90;;;;;;5229089;28;20511;-48
2022/10/26 09:39:09;;;;;;;9.93;7.50;;;13.40;99.90;;;;;;5264572;28;20519;-49
2022/10/26 09:41:45;;;;;;;10.83;7.87;;;13.50;99.90;;;;;;5257631;28;20486;-49
2022/10/26 09:44:26;;;;;;;10.47;7.90;;;13.70;99.90;;;;;;5262366;28;20515;-49
2022/10/26 09:47:03;;;;;;;7.90;7.10;;;13.70;99.90;;;;;;5263193;28;20431;-48
2022/10/26 09:49:49;;;;;;;9.63;7.50;;;13.70;99.90;;;;;;5263544;28;20467;-48
2022/10/26 09:52:20;;;;;;;10.90;7.13;;;13.70;99.90;;;;;;5275633;28;20484;-47
2022/10/26 09:54:50;;;;;;;16.97;8.70;;;13.60;99.90;;;;;;5258282;28;20463;-47
2022/10/26 09:57:22;;;;;;;10.77;8.03;;;13.60;99.90;;;;;;5255271;28;20630;-48
2022/10/26 09:59:54;;;;;;;11.90;7.80;;;13.70;99.90;;;;;;5252805;28;20218;-52
2022/10/26 10:02:36;;;;;;;14.00;7.20;;;13.70;99.90;;;;;;5255939;22;20526;-52
2022/10/26 10:05:28;;;;;;;9.47;7.27;;;13.70;99.90;;;;;;5224970;28;20442;-51
2022/10/26 10:08:17;;;;;;;13.80;7.80;;;13.80;99.90;;;;;;5239486;28;20531;-51
2022/10/26 10:10:58;;;;;;;10.67;7.90;;;13.90;99.90;;;;;;5216812;28;20445;-51
2022/10/26 10:13:35;;;;;;;10.10;7.23;;;14.00;99.90;;;;;;5237687;28;20532;-51
2022/10/26 10:16:19;;;;;;;20.47;7.20;;;14.10;99.90;;;;;;5231119;28;20947;-51
2022/10/26 10:18:59;;;;;;;7.57;6.20;;;14.20;99.90;;;;;;5229740;28;20853;-51
2022/10/26 10:21:42;;;;;;;15.83;7.80;;;14.40;99.90;;;;;;5223040;28;20967;-52
2022/10/26 10:24:27;;;;;;;8.60;6.07;;;14.40;99.90;;;;;;5228504;28;20489;-52
2022/10/26 10:27:01;;;;;;;8.30;6.87;;;14.50;99.90;;;;;;5218352;28;20464;-50
2022/10/26 10:29:39;;;;;;;8.10;5.57;;;14.60;99.90;;;;;;5220354;28;20433;-51
2022/10/26 10:32:35;;;;;;;14.07;6.70;;;14.80;99.90;;;;;;5238256;28;20493;-52
2022/10/26 10:35:28;;;;;;;14.73;6.67;;;14.90;99.90;;;;;;5240993;28;20455;-52
2022/10/26 10:37:59;;;;;;;10.13;5.53;;;14.90;99.90;;;;;;5225084;28;20992;-52
2022/10/26 10:40:30;;;;;;;20.33;6.87;;;15.00;99.90;;;;;;5245975;28;20539;-52
2022/10/26 10:43:05;;;;;;;7.73;5.80;;;15.20;99.90;;;;;;5244760;28;20428;-50
2022/10/26 10:45:37;;;;;;;9.93;4.73;;;15.30;99.90;;;;;;5221441;28;20444;-52
2022/10/26 10:48:26;;;;;;;9.43;6.03;;;15.30;99.90;;;;;;5242200;28;20487;-52
2022/10/26 10:50:59;;;;;;;8.63;5.37;;;15.50;99.90;;;;;;5222693;28;20467;-52
2022/10/26 10:53:36;;;;;;;5.07;4.67;;;15.60;99.90;;;;;;5246998;28;20791;-51
2022/10/26 10:56:29;;;;;;;3.83;3.53;;;15.70;99.90;;;;;;5220398;28;20444;-52
2022/10/26 10:59:30;;;;;;;4.47;4.07;;;15.80;99.90;;;;;;5219902;28;20440;-51
2022/10/26 11:02:21;;;;;;;9.10;3.90;;;15.90;99.90;;;;;;5246688;28;20456;-52
2022/10/26 11:05:01;;;;;;;9.53;3.03;;;15.80;99.90;;;;;;5243333;28;20429;-52
2022/10/26 11:07:41;;;;;;;3.40;3.20;;;16.00;99.90;;;;;;5247207;28;20491;-52
2022/10/26 11:10:16;;;;;;;9.13;4.80;;;15.90;99.90;;;;;;5226202;28;20439;-52
2022/10/26 11:12:59;;;;;;;6.73;3.13;;;15.90;99.90;;;;;;5224702;28;20451;-51
2022/10/26 11:15:33;;;;;;;7.73;4.10;;;16.10;99.90;;;;;;5234671;28;20444;-51
2022/10/26 11:18:34;;;;;;;4.50;2.30;;;16.20;99.90;;;;;;5226481;28;20443;-51
2022/10/26 11:21:27;;;;;;;3.30;2.57;;;16.40;99.90;;;;;;5213376;28;20528;-51
2022/10/26 11:24:19;;;;;;;2.50;1.80;;;16.50;99.90;;;;;;5216889;28;20472;-51
2022/10/26 11:26:57;;;;;;;2.90;2.70;;;16.50;99.90;;;;;;5237051;28;20440;-51
2022/10/26 11:29:48;;;;;;;3.97;2.63;;;16.60;99.90;;;;;;5226665;28;20431;-51
2022/10/26 11:32:35;;;;;;;4.00;2.57;;;16.50;99.90;;;;;;5225083;28;20828;-52
2022/10/26 11:35:17;;;;;;;4.50;2.70;;;16.60;99.90;;;;;;5238299;28;20467;-51
2022/10/26 11:38:00;;;;;;;4.83;4.20;;;16.60;99.90;;;;;;5238545;28;20440;-51
2022/10/26 11:41:05;;;;;;;5.03;2.90;;;16.70;99.90;;;;;;5213644;28;20468;-52
2022/10/26 11:43:36;;;;;;;11.63;3.13;;;16.60;99.90;;;;;;5244729;28;20806;-50
2022/10/26 11:46:35;;;;;;;2.67;1.87;;;16.60;99.90;;;;;;5244298;28;20436;-51
2022/10/26 11:49:19;;;;;;;9.03;2.10;;;16.60;99.90;;;;;;5244385;28;20178;-52
2022/10/26 11:52:09;;;;;;;5.60;2.90;;;16.70;99.90;;;;;;5237437;28;20793;-51
2022/10/26 11:54:46;;;;;;;2.40;2.30;;;16.60;99.90;;;;;;5243678;28;20436;-52
2022/10/26 11:57:17;;;;;;;6.37;2.40;;;16.70;99.90;;;;;;5232904;28;20437;-52
2022/10/26 11:59:56;;;;;;;16.63;2.77;;;16.70;99.90;;;;;;5220650;28;20527;-51
2022/10/26 12:02:27;;;;;;;9.47;2.73;;;16.70;99.90;;;;;;5231238;28;20473;-52
2022/10/26 12:05:16;;;;;;;7.93;2.00;;;16.70;99.90;;;;;;5224239;28;20440;-51
2022/10/26 12:07:53;;;;;;;3.07;2.20;;;16.80;99.90;;;;;;5237149;28;20521;-50
2022/10/26 12:10:28;;;;;;;5.73;2.00;;;16.70;99.90;;;;;;5219215;28;20433;-51
2022/10/26 12:13:37;;;;;;;3.17;2.27;;;16.80;99.90;;;;;;5237769;28;20513;-52
2022/10/26 12:16:26;;;;;;;3.03;1.70;;;16.80;99.90;;;;;;5173532;28;20440;-51
2022/10/26 12:19:01;;;;;;;5.93;2.60;;;17.10;99.90;;;;;;5225173;28;20443;-52
2022/10/26 12:21:33;;;;;;;1.90;1.77;;;17.10;99.90;;;;;;5221041;28;20558;-50
2022/10/26 12:24:22;;;;;;;9.17;2.80;;;17.10;99.90;;;;;;5222088;28;20505;-52
2022/10/26 12:26:58;;;;;;;3.23;2.20;;;17.10;99.90;;;;;;5221180;28;20430;-52
2022/10/26 12:29:35;;;;;;;2.70;1.87;;;17.10;99.90;;;;;;5221527;28;20433;-52
2022/10/26 12:32:31;;;;;;;2.70;2.10;;;17.30;99.90;;;;;;5237552;28;20456;-52
2022/10/26 12:35:31;;;;;;;1.70;1.60;;;17.40;99.90;;;;;;5236847;28;20879;-51
2022/10/26 12:38:24;;;;;;;4.00;1.97;;;17.40;99.90;;;;;;5242311;28;20432;-52
2022/10/26 12:41:05;;;;;;;3.20;2.00;;;17.40;99.90;;;;;;5239742;28;20541;-52
2022/10/26 12:43:40;;;;;;;14.20;2.33;;;17.20;99.90;;;;;;5237932;28;20437;-49
2022/10/26 12:46:13;;;;;;;4.37;2.50;;;17.20;99.90;;;;;;5237261;28;20428;-48
2022/10/26 12:48:45;;;;;;;2.43;2.30;;;17.10;99.90;;;;;;5226552;28;20443;-49
2022/10/26 12:51:23;;;;;;;4.47;2.87;;;17.20;99.90;;;;;;5241915;28;20453;-48
2022/10/26 12:54:20;;;;;;;3.90;1.73;;;17.20;99.90;;;;;;5242182;28;20433;-51
2022/10/26 12:57:06;;;;;;;2.20;2.10;;;17.30;99.90;;;;;;5217823;28;20437;-54
2022/10/26 12:59:39;;;;;;;4.57;2.43;;;17.30;99.90;;;;;;5238872;28;20440;-49
2022/10/26 13:02:35;;;;;;;9.53;2.40;;;17.40;99.90;;;;;;5241361;28;20968;-49
2022/10/26 13:05:27;;;;;;;3.43;2.63;;;17.40;99.90;;;;;;5239531;28;20471;-49
2022/10/26 13:08:07;;;;;;;3.70;1.90;;;17.40;99.90;;;;;;5243295;28;20438;-48
2022/10/26 13:10:45;;;;;;;2.67;2.27;;;17.30;99.90;;;;;;5221724;28;20870;-53
2022/10/26 13:13:23;;;;;;;2.00;1.80;;;17.40;99.90;;;;;;5240795;28;20511;-56
2022/10/26 13:15:56;;;;;;;2.63;2.43;;;17.40;99.90;;;;;;5221339;28;20516;-49
2022/10/26 13:18:27;;;;;;;4.60;2.37;;;17.40;99.90;;;;;;5224595;28;20477;-53
2022/10/26 13:21:07;;;;;;;6.90;2.60;;;17.30;99.90;;;;;;5241983;28;20472;-49
2022/10/26 13:23:40;;;;;;;4.50;2.40;;;17.40;99.90;;;;;;5234770;28;20443;-50
2022/10/26 13:26:16;;;;;;;3.67;2.43;;;17.30;99.90;;;;;;5244959;28;20440;-50
2022/10/26 13:28:51;;;;;;;2.47;2.20;;;17.30;99.90;;;;;;5224442;28;20440;-51
2022/10/26 13:31:28;;;;;;;3.03;2.03;;;17.30;99.90;;;;;;5235289;28;20475;-50